sensor_id;sensor_type;location;lat;lon;timestamp;P1;durP1;ratioP1;P2;durP2;ratioP2
35977;SDS011;22056;0.000;0.000;2023-08-01T00:00:02;2.47;;;1.00;;
35977;SDS011;22056;0.000;0.000;2023-08-01T00:02:30;3.80;;;0.80;;
35977;SDS011;22056;0.000;0.000;2023-08-01T00:04:57;1.67;;;0.88;;
35977;SDS011;22056;0.000;0.000;2023-08-01T00:07:23;1.65;;;0.80;;
35977;SDS011;22056;0.000;0.000;2023-08-01T00:09:49;3.33;;;0.90;;
35977;SDS011;22056;0.000;0.000;2023-08-01T00:12:15;1.98;;;0.90;;
35977;SDS011;22056;0.000;0.000;2023-08-01T00:14:41;2.40;;;0.73;;
35977;SDS011;22056;0.000;0.000;2023-08-01T00:17:07;1.70;;;0.80;;
35977;SDS011;22056;0.000;0.000;2023-08-01T00:19:33;2.63;;;0.82;;
35977;SDS011;22056;0.000;0.000;2023-08-01T00:21:59;1.38;;;0.60;;
35977;SDS011;22056;0.000;0.000;2023-08-01T00:24:25;2.42;;;0.63;;
35977;SDS011;22056;0.000;0.000;2023-08-01T00:26:52;1.70;;;0.90;;
35977;SDS011;22056;0.000;0.000;2023-08-01T00:29:20;1.70;;;0.70;;
35977;SDS011;22056;0.000;0.000;2023-08-01T00:31:46;2.38;;;0.75;;
35977;SDS011;22056;0.000;0.000;2023-08-01T00:34:13;1.05;;;0.65;;
35977;SDS011;22056;0.000;0.000;2023-08-01T00:36:39;0.68;;;0.63;;
35977;SDS011;22056;0.000;0.000;2023-08-01T00:39:05;0.70;;;0.60;;
35977;SDS011;22056;0.000;0.000;2023-08-01T00:41:31;1.25;;;0.60;;
35977;SDS011;22056;0.000;0.000;2023-08-01T00:43:57;1.02;;;0.50;;
35977;SDS011;22056;0.000;0.000;2023-08-01T00:46:23;1.02;;;0.50;;
35977;SDS011;22056;0.000;0.000;2023-08-01T00:48:50;1.10;;;0.75;;
35977;SDS011;22056;0.000;0.000;2023-08-01T00:51:16;2.13;;;0.70;;
35977;SDS011;22056;0.000;0.000;2023-08-01T00:53:43;0.93;;;0.63;;
35977;SDS011;22056;0.000;0.000;2023-08-01T00:56:11;1.00;;;0.55;;
35977;SDS011;22056;0.000;0.000;2023-08-01T00:58:38;1.85;;;0.52;;
35977;SDS011;22056;0.000;0.000;2023-08-01T01:01:04;1.63;;;0.50;;
35977;SDS011;22056;0.000;0.000;2023-08-01T01:03:30;0.95;;;0.60;;
35977;SDS011;22056;0.000;0.000;2023-08-01T01:06:00;1.15;;;0.50;;
35977;SDS011;22056;0.000;0.000;2023-08-01T01:08:27;0.52;;;0.50;;
35977;SDS011;22056;0.000;0.000;2023-08-01T01:10:53;0.63;;;0.50;;
35977;SDS011;22056;0.000;0.000;2023-08-01T01:13:20;1.55;;;0.68;;
35977;SDS011;22056;0.000;0.000;2023-08-01T01:15:46;0.95;;;0.60;;
35977;SDS011;22056;0.000;0.000;2023-08-01T01:18:12;1.00;;;0.50;;
35977;SDS011;22056;0.000;0.000;2023-08-01T01:20:39;1.13;;;0.60;;
35977;SDS011;22056;0.000;0.000;2023-08-01T01:23:05;1.40;;;0.60;;
35977;SDS011;22056;0.000;0.000;2023-08-01T01:25:32;0.75;;;0.50;;
35977;SDS011;22056;0.000;0.000;2023-08-01T01:27:59;0.90;;;0.60;;
35977;SDS011;22056;0.000;0.000;2023-08-01T01:30:26;0.75;;;0.60;;
35977;SDS011;22056;0.000;0.000;2023-08-01T01:32:53;1.13;;;0.52;;
35977;SDS011;22056;0.000;0.000;2023-08-01T01:35:19;1.63;;;0.68;;
35977;SDS011;22056;0.000;0.000;2023-08-01T01:37:45;0.50;;;0.50;;
35977;SDS011;22056;0.000;0.000;2023-08-01T01:40:11;1.33;;;0.50;;
35977;SDS011;22056;0.000;0.000;2023-08-01T01:42:37;1.27;;;0.70;;
35977;SDS011;22056;0.000;0.000;2023-08-01T01:45:03;1.15;;;0.50;;
35977;SDS011;22056;0.000;0.000;2023-08-01T01:47:30;0.98;;;0.63;;
35977;SDS011;22056;0.000;0.000;2023-08-01T01:49:56;0.63;;;0.50;;
35977;SDS011;22056;0.000;0.000;2023-08-01T01:52:22;0.63;;;0.52;;
35977;SDS011;22056;0.000;0.000;2023-08-01T01:54:48;0.70;;;0.50;;
35977;SDS011;22056;0.000;0.000;2023-08-01T01:57:14;1.15;;;0.50;;
35977;SDS011;22056;0.000;0.000;2023-08-01T01:59:40;1.20;;;0.57;;
35977;SDS011;22056;0.000;0.000;2023-08-01T02:02:06;1.10;;;0.60;;
35977;SDS011;22056;0.000;0.000;2023-08-01T02:04:32;0.70;;;0.50;;
35977;SDS011;22056;0.000;0.000;2023-08-01T02:06:59;0.98;;;0.60;;
35977;SDS011;22056;0.000;0.000;2023-08-01T02:09:25;0.73;;;0.50;;
35977;SDS011;22056;0.000;0.000;2023-08-01T02:11:51;0.90;;;0.70;;
35977;SDS011;22056;0.000;0.000;2023-08-01T02:14:17;0.47;;;0.40;;
35977;SDS011;22056;0.000;0.000;2023-08-01T02:16:43;0.90;;;0.50;;
35977;SDS011;22056;0.000;0.000;2023-08-01T02:19:09;0.45;;;0.45;;
35977;SDS011;22056;0.000;0.000;2023-08-01T02:21:35;0.68;;;0.60;;
35977;SDS011;22056;0.000;0.000;2023-08-01T02:24:02;0.88;;;0.60;;
35977;SDS011;22056;0.000;0.000;2023-08-01T02:26:28;1.85;;;0.65;;
35977;SDS011;22056;0.000;0.000;2023-08-01T02:28:54;0.60;;;0.52;;
35977;SDS011;22056;0.000;0.000;2023-08-01T02:31:21;0.68;;;0.50;;
35977;SDS011;22056;0.000;0.000;2023-08-01T02:33:47;0.40;;;0.40;;
35977;SDS011;22056;0.000;0.000;2023-08-01T02:36:13;1.02;;;0.57;;
35977;SDS011;22056;0.000;0.000;2023-08-01T02:38:39;1.23;;;0.50;;
35977;SDS011;22056;0.000;0.000;2023-08-01T02:41:05;0.73;;;0.50;;
35977;SDS011;22056;0.000;0.000;2023-08-01T02:43:31;0.65;;;0.50;;
35977;SDS011;22056;0.000;0.000;2023-08-01T02:46:00;0.82;;;0.43;;
35977;SDS011;22056;0.000;0.000;2023-08-01T02:48:26;0.60;;;0.50;;
35977;SDS011;22056;0.000;0.000;2023-08-01T02:50:52;0.88;;;0.60;;
35977;SDS011;22056;0.000;0.000;2023-08-01T02:53:18;1.77;;;0.80;;
35977;SDS011;22056;0.000;0.000;2023-08-01T02:55:44;0.98;;;0.50;;
35977;SDS011;22056;0.000;0.000;2023-08-01T02:58:13;0.75;;;0.50;;
35977;SDS011;22056;0.000;0.000;2023-08-01T03:00:40;0.60;;;0.40;;
35977;SDS011;22056;0.000;0.000;2023-08-01T03:03:06;0.50;;;0.50;;
35977;SDS011;22056;0.000;0.000;2023-08-01T03:05:35;0.57;;;0.50;;
35977;SDS011;22056;0.000;0.000;2023-08-01T03:08:01;0.60;;;0.50;;
35977;SDS011;22056;0.000;0.000;2023-08-01T03:10:28;0.77;;;0.55;;
35977;SDS011;22056;0.000;0.000;2023-08-01T03:12:54;0.80;;;0.60;;
35977;SDS011;22056;0.000;0.000;2023-08-01T03:15:20;0.35;;;0.35;;
35977;SDS011;22056;0.000;0.000;2023-08-01T03:17:46;0.60;;;0.60;;
35977;SDS011;22056;0.000;0.000;2023-08-01T03:20:12;0.70;;;0.60;;
35977;SDS011;22056;0.000;0.000;2023-08-01T03:22:38;1.05;;;0.68;;
35977;SDS011;22056;0.000;0.000;2023-08-01T03:25:05;2.22;;;0.65;;
35977;SDS011;22056;0.000;0.000;2023-08-01T03:27:35;0.70;;;0.55;;
35977;SDS011;22056;0.000;0.000;2023-08-01T03:30:01;1.05;;;0.50;;
35977;SDS011;22056;0.000;0.000;2023-08-01T03:32:27;0.93;;;0.70;;
35977;SDS011;22056;0.000;0.000;2023-08-01T03:34:53;0.47;;;0.45;;
35977;SDS011;22056;0.000;0.000;2023-08-01T03:37:20;0.40;;;0.40;;
35977;SDS011;22056;0.000;0.000;2023-08-01T03:39:46;0.80;;;0.70;;
35977;SDS011;22056;0.000;0.000;2023-08-01T03:42:12;0.50;;;0.50;;
35977;SDS011;22056;0.000;0.000;2023-08-01T03:44:38;0.75;;;0.50;;
35977;SDS011;22056;0.000;0.000;2023-08-01T03:47:04;0.60;;;0.60;;
35977;SDS011;22056;0.000;0.000;2023-08-01T03:49:31;1.08;;;0.77;;
35977;SDS011;22056;0.000;0.000;2023-08-01T03:51:58;0.55;;;0.50;;
35977;SDS011;22056;0.000;0.000;2023-08-01T03:54:24;0.60;;;0.50;;
35977;SDS011;22056;0.000;0.000;2023-08-01T03:56:50;1.25;;;0.60;;
35977;SDS011;22056;0.000;0.000;2023-08-01T03:59:17;1.40;;;0.60;;
35977;SDS011;22056;0.000;0.000;2023-08-01T04:01:43;0.93;;;0.60;;
35977;SDS011;22056;0.000;0.000;2023-08-01T04:04:10;0.65;;;0.60;;
35977;SDS011;22056;0.000;0.000;2023-08-01T04:06:36;1.98;;;0.70;;
35977;SDS011;22056;0.000;0.000;2023-08-01T04:09:02;0.60;;;0.60;;
35977;SDS011;22056;0.000;0.000;2023-08-01T04:11:29;0.93;;;0.65;;
35977;SDS011;22056;0.000;0.000;2023-08-01T04:13:55;0.98;;;0.70;;
35977;SDS011;22056;0.000;0.000;2023-08-01T04:16:21;0.90;;;0.60;;
35977;SDS011;22056;0.000;0.000;2023-08-01T04:18:47;0.75;;;0.60;;
35977;SDS011;22056;0.000;0.000;2023-08-01T04:21:14;0.73;;;0.70;;
35977;SDS011;22056;0.000;0.000;2023-08-01T04:23:40;0.98;;;0.70;;
35977;SDS011;22056;0.000;0.000;2023-08-01T04:26:06;0.80;;;0.60;;
35977;SDS011;22056;0.000;0.000;2023-08-01T04:28:33;0.70;;;0.60;;
35977;SDS011;22056;0.000;0.000;2023-08-01T04:30:59;1.05;;;0.70;;
35977;SDS011;22056;0.000;0.000;2023-08-01T04:33:25;0.52;;;0.52;;
35977;SDS011;22056;0.000;0.000;2023-08-01T04:35:52;1.23;;;0.60;;
35977;SDS011;22056;0.000;0.000;2023-08-01T04:38:18;0.90;;;0.70;;
35977;SDS011;22056;0.000;0.000;2023-08-01T04:40:44;0.82;;;0.63;;
35977;SDS011;22056;0.000;0.000;2023-08-01T04:43:11;1.30;;;0.80;;
35977;SDS011;22056;0.000;0.000;2023-08-01T04:45:37;1.10;;;0.63;;
35977;SDS011;22056;0.000;0.000;2023-08-01T04:48:03;2.00;;;0.60;;
35977;SDS011;22056;0.000;0.000;2023-08-01T04:50:29;0.70;;;0.40;;
35977;SDS011;22056;0.000;0.000;2023-08-01T04:52:55;1.83;;;0.60;;
35977;SDS011;22056;0.000;0.000;2023-08-01T04:55:21;1.38;;;0.70;;
35977;SDS011;22056;0.000;0.000;2023-08-01T04:57:47;1.67;;;0.90;;
35977;SDS011;22056;0.000;0.000;2023-08-01T05:00:14;1.20;;;0.55;;
35977;SDS011;22056;0.000;0.000;2023-08-01T05:02:40;2.47;;;0.70;;
35977;SDS011;22056;0.000;0.000;2023-08-01T05:05:06;1.23;;;0.80;;
35977;SDS011;22056;0.000;0.000;2023-08-01T05:07:32;0.82;;;0.77;;
35977;SDS011;22056;0.000;0.000;2023-08-01T05:09:58;1.13;;;0.85;;
35977;SDS011;22056;0.000;0.000;2023-08-01T05:12:24;1.70;;;0.80;;
35977;SDS011;22056;0.000;0.000;2023-08-01T05:14:50;0.80;;;0.70;;
35977;SDS011;22056;0.000;0.000;2023-08-01T05:17:17;1.40;;;0.65;;
35977;SDS011;22056;0.000;0.000;2023-08-01T05:19:43;0.63;;;0.60;;
35977;SDS011;22056;0.000;0.000;2023-08-01T05:22:09;1.27;;;0.55;;
35977;SDS011;22056;0.000;0.000;2023-08-01T05:24:35;1.90;;;0.90;;
35977;SDS011;22056;0.000;0.000;2023-08-01T05:27:01;3.33;;;0.90;;
35977;SDS011;22056;0.000;0.000;2023-08-01T05:29:27;2.97;;;0.90;;
35977;SDS011;22056;0.000;0.000;2023-08-01T05:31:53;2.45;;;0.90;;
35977;SDS011;22056;0.000;0.000;2023-08-01T05:34:19;3.95;;;1.00;;
35977;SDS011;22056;0.000;0.000;2023-08-01T05:36:45;3.20;;;0.95;;
35977;SDS011;22056;0.000;0.000;2023-08-01T05:39:12;3.40;;;1.15;;
35977;SDS011;22056;0.000;0.000;2023-08-01T05:41:38;1.80;;;1.10;;
35977;SDS011;22056;0.000;0.000;2023-08-01T05:44:04;1.92;;;1.00;;
35977;SDS011;22056;0.000;0.000;2023-08-01T05:46:30;6.45;;;0.80;;
35977;SDS011;22056;0.000;0.000;2023-08-01T05:48:56;3.03;;;0.90;;
35977;SDS011;22056;0.000;0.000;2023-08-01T05:51:22;4.78;;;1.13;;
35977;SDS011;22056;0.000;0.000;2023-08-01T05:53:48;2.60;;;0.88;;
35977;SDS011;22056;0.000;0.000;2023-08-01T05:56:14;1.77;;;1.20;;
35977;SDS011;22056;0.000;0.000;2023-08-01T05:58:41;1.48;;;0.77;;
35977;SDS011;22056;0.000;0.000;2023-08-01T06:01:07;2.92;;;1.02;;
35977;SDS011;22056;0.000;0.000;2023-08-01T06:03:34;3.33;;;1.10;;
35977;SDS011;22056;0.000;0.000;2023-08-01T06:06:00;4.30;;;1.00;;
35977;SDS011;22056;0.000;0.000;2023-08-01T06:08:26;2.35;;;0.93;;
35977;SDS011;22056;0.000;0.000;2023-08-01T06:10:52;5.15;;;1.20;;
35977;SDS011;22056;0.000;0.000;2023-08-01T06:13:19;1.70;;;1.02;;
35977;SDS011;22056;0.000;0.000;2023-08-01T06:15:45;1.98;;;1.10;;
35977;SDS011;22056;0.000;0.000;2023-08-01T06:18:11;4.78;;;1.10;;
35977;SDS011;22056;0.000;0.000;2023-08-01T06:20:37;2.83;;;0.80;;
35977;SDS011;22056;0.000;0.000;2023-08-01T06:23:04;2.03;;;1.02;;
35977;SDS011;22056;0.000;0.000;2023-08-01T06:25:30;2.42;;;1.00;;
35977;SDS011;22056;0.000;0.000;2023-08-01T06:27:56;1.63;;;1.25;;
35977;SDS011;22056;0.000;0.000;2023-08-01T06:30:22;2.70;;;0.98;;
35977;SDS011;22056;0.000;0.000;2023-08-01T06:32:49;4.63;;;1.08;;
35977;SDS011;22056;0.000;0.000;2023-08-01T06:35:15;2.85;;;0.90;;
35977;SDS011;22056;0.000;0.000;2023-08-01T06:37:41;1.92;;;1.00;;
35977;SDS011;22056;0.000;0.000;2023-08-01T06:40:07;1.77;;;0.77;;
35977;SDS011;22056;0.000;0.000;2023-08-01T06:42:33;2.70;;;1.08;;
35977;SDS011;22056;0.000;0.000;2023-08-01T06:44:59;2.22;;;1.08;;
35977;SDS011;22056;0.000;0.000;2023-08-01T06:47:26;1.58;;;1.10;;
35977;SDS011;22056;0.000;0.000;2023-08-01T06:49:52;2.15;;;0.82;;
35977;SDS011;22056;0.000;0.000;2023-08-01T06:52:18;3.03;;;0.93;;
35977;SDS011;22056;0.000;0.000;2023-08-01T06:54:44;2.42;;;0.93;;
35977;SDS011;22056;0.000;0.000;2023-08-01T06:57:10;4.32;;;1.20;;
35977;SDS011;22056;0.000;0.000;2023-08-01T06:59:36;3.15;;;1.20;;
35977;SDS011;22056;0.000;0.000;2023-08-01T07:02:03;4.15;;;0.90;;
35977;SDS011;22056;0.000;0.000;2023-08-01T07:04:29;2.30;;;1.20;;
35977;SDS011;22056;0.000;0.000;2023-08-01T07:06:55;4.18;;;1.17;;
35977;SDS011;22056;0.000;0.000;2023-08-01T07:09:21;3.05;;;1.25;;
35977;SDS011;22056;0.000;0.000;2023-08-01T07:11:47;4.30;;;1.50;;
35977;SDS011;22056;0.000;0.000;2023-08-01T07:14:13;3.42;;;1.40;;
35977;SDS011;22056;0.000;0.000;2023-08-01T07:16:40;4.13;;;1.73;;
35977;SDS011;22056;0.000;0.000;2023-08-01T07:19:06;9.20;;;1.70;;
35977;SDS011;22056;0.000;0.000;2023-08-01T07:21:32;3.67;;;1.30;;
35977;SDS011;22056;0.000;0.000;2023-08-01T07:23:58;2.92;;;1.10;;
35977;SDS011;22056;0.000;0.000;2023-08-01T07:26:24;5.38;;;1.40;;
35977;SDS011;22056;0.000;0.000;2023-08-01T07:28:50;6.00;;;1.60;;
35977;SDS011;22056;0.000;0.000;2023-08-01T07:31:16;4.85;;;1.40;;
35977;SDS011;22056;0.000;0.000;2023-08-01T07:33:42;4.65;;;1.40;;
35977;SDS011;22056;0.000;0.000;2023-08-01T07:36:08;1.95;;;1.33;;
35977;SDS011;22056;0.000;0.000;2023-08-01T07:38:35;3.83;;;1.50;;
35977;SDS011;22056;0.000;0.000;2023-08-01T07:41:04;3.40;;;1.80;;
35977;SDS011;22056;0.000;0.000;2023-08-01T07:43:32;4.05;;;1.45;;
35977;SDS011;22056;0.000;0.000;2023-08-01T07:45:58;4.13;;;1.70;;
35977;SDS011;22056;0.000;0.000;2023-08-01T07:48:25;3.25;;;1.33;;
35977;SDS011;22056;0.000;0.000;2023-08-01T07:50:51;2.67;;;1.48;;
35977;SDS011;22056;0.000;0.000;2023-08-01T07:53:17;8.13;;;2.00;;
35977;SDS011;22056;0.000;0.000;2023-08-01T07:55:43;5.10;;;1.80;;
35977;SDS011;22056;0.000;0.000;2023-08-01T07:58:10;2.20;;;1.35;;
35977;SDS011;22056;0.000;0.000;2023-08-01T08:00:36;4.70;;;1.52;;
35977;SDS011;22056;0.000;0.000;2023-08-01T08:03:02;3.63;;;1.48;;
35977;SDS011;22056;0.000;0.000;2023-08-01T08:05:30;3.63;;;1.50;;
35977;SDS011;22056;0.000;0.000;2023-08-01T08:07:56;4.15;;;1.45;;
35977;SDS011;22056;0.000;0.000;2023-08-01T08:10:22;4.22;;;1.48;;
35977;SDS011;22056;0.000;0.000;2023-08-01T08:12:49;4.18;;;1.70;;
35977;SDS011;22056;0.000;0.000;2023-08-01T08:15:16;6.15;;;1.63;;
35977;SDS011;22056;0.000;0.000;2023-08-01T08:17:44;4.72;;;1.63;;
35977;SDS011;22056;0.000;0.000;2023-08-01T08:20:10;3.35;;;1.50;;
35977;SDS011;22056;0.000;0.000;2023-08-01T08:22:36;6.28;;;1.75;;
35977;SDS011;22056;0.000;0.000;2023-08-01T08:25:03;10.20;;;1.83;;
35977;SDS011;22056;0.000;0.000;2023-08-01T08:27:29;3.05;;;1.92;;
35977;SDS011;22056;0.000;0.000;2023-08-01T08:29:55;5.43;;;2.05;;
35977;SDS011;22056;0.000;0.000;2023-08-01T08:32:21;4.53;;;2.15;;
35977;SDS011;22056;0.000;0.000;2023-08-01T08:34:47;4.32;;;1.77;;
35977;SDS011;22056;0.000;0.000;2023-08-01T08:37:13;4.55;;;1.98;;
35977;SDS011;22056;0.000;0.000;2023-08-01T08:39:39;5.45;;;1.92;;
35977;SDS011;22056;0.000;0.000;2023-08-01T08:42:06;9.55;;;1.88;;
35977;SDS011;22056;0.000;0.000;2023-08-01T08:44:32;4.72;;;2.20;;
35977;SDS011;22056;0.000;0.000;2023-08-01T08:47:02;2.63;;;1.55;;
35977;SDS011;22056;0.000;0.000;2023-08-01T08:49:31;3.28;;;1.88;;
35977;SDS011;22056;0.000;0.000;2023-08-01T08:51:58;4.60;;;1.90;;
35977;SDS011;22056;0.000;0.000;2023-08-01T08:54:24;4.05;;;2.00;;
35977;SDS011;22056;0.000;0.000;2023-08-01T08:56:50;5.25;;;2.28;;
35977;SDS011;22056;0.000;0.000;2023-08-01T08:59:17;6.05;;;2.50;;
35977;SDS011;22056;0.000;0.000;2023-08-01T09:01:44;5.75;;;1.88;;
35977;SDS011;22056;0.000;0.000;2023-08-01T09:04:10;4.00;;;1.70;;
35977;SDS011;22056;0.000;0.000;2023-08-01T09:06:55;5.55;;;1.92;;
35977;SDS011;22056;0.000;0.000;2023-08-01T09:09:24;4.95;;;1.67;;
35977;SDS011;22056;0.000;0.000;2023-08-01T09:11:52;6.53;;;1.90;;
35977;SDS011;22056;0.000;0.000;2023-08-01T09:14:21;3.47;;;1.70;;
35977;SDS011;22056;0.000;0.000;2023-08-01T09:16:47;5.65;;;1.92;;
35977;SDS011;22056;0.000;0.000;2023-08-01T09:19:17;3.17;;;1.63;;
35977;SDS011;22056;0.000;0.000;2023-08-01T09:21:43;3.20;;;1.67;;
35977;SDS011;22056;0.000;0.000;2023-08-01T09:24:13;3.75;;;1.75;;
35977;SDS011;22056;0.000;0.000;2023-08-01T09:26:40;3.15;;;1.60;;
35977;SDS011;22056;0.000;0.000;2023-08-01T09:29:06;7.10;;;2.00;;
35977;SDS011;22056;0.000;0.000;2023-08-01T09:31:33;5.07;;;1.55;;
35977;SDS011;22056;0.000;0.000;2023-08-01T09:34:00;5.63;;;1.60;;
35977;SDS011;22056;0.000;0.000;2023-08-01T09:36:28;5.03;;;1.63;;
35977;SDS011;22056;0.000;0.000;2023-08-01T09:39:01;5.47;;;1.52;;
35977;SDS011;22056;0.000;0.000;2023-08-01T09:41:31;7.03;;;1.70;;
35977;SDS011;22056;0.000;0.000;2023-08-01T09:43:57;3.28;;;1.67;;
35977;SDS011;22056;0.000;0.000;2023-08-01T09:46:24;3.75;;;1.60;;
35977;SDS011;22056;0.000;0.000;2023-08-01T09:48:50;5.20;;;1.60;;
35977;SDS011;22056;0.000;0.000;2023-08-01T09:51:16;4.90;;;1.52;;
35977;SDS011;22056;0.000;0.000;2023-08-01T09:56:14;3.47;;;1.33;;
35977;SDS011;22056;0.000;0.000;2023-08-01T09:58:42;2.30;;;1.13;;
35977;SDS011;22056;0.000;0.000;2023-08-01T10:01:08;3.17;;;1.30;;
35977;SDS011;22056;0.000;0.000;2023-08-01T10:03:35;2.75;;;1.13;;
35977;SDS011;22056;0.000;0.000;2023-08-01T10:06:01;5.00;;;1.58;;
35977;SDS011;22056;0.000;0.000;2023-08-01T10:08:28;3.17;;;1.13;;
35977;SDS011;22056;0.000;0.000;2023-08-01T10:10:57;2.20;;;1.10;;
35977;SDS011;22056;0.000;0.000;2023-08-01T10:13:23;6.03;;;1.25;;
35977;SDS011;22056;0.000;0.000;2023-08-01T10:15:50;4.47;;;1.30;;
35977;SDS011;22056;0.000;0.000;2023-08-01T10:18:17;2.78;;;1.50;;
35977;SDS011;22056;0.000;0.000;2023-08-01T10:20:43;4.90;;;1.15;;
35977;SDS011;22056;0.000;0.000;2023-08-01T10:23:10;5.80;;;1.73;;
35977;SDS011;22056;0.000;0.000;2023-08-01T10:25:37;4.75;;;1.52;;
35977;SDS011;22056;0.000;0.000;2023-08-01T10:28:05;4.28;;;1.13;;
35977;SDS011;22056;0.000;0.000;2023-08-01T10:30:31;2.75;;;1.40;;
35977;SDS011;22056;0.000;0.000;2023-08-01T10:32:59;4.50;;;1.30;;
35977;SDS011;22056;0.000;0.000;2023-08-01T10:35:34;2.45;;;1.17;;
35977;SDS011;22056;0.000;0.000;2023-08-01T10:38:08;2.80;;;1.00;;
35977;SDS011;22056;0.000;0.000;2023-08-01T10:40:37;2.00;;;1.10;;
35977;SDS011;22056;0.000;0.000;2023-08-01T10:43:04;4.97;;;1.33;;
35977;SDS011;22056;0.000;0.000;2023-08-01T10:45:30;2.08;;;1.40;;
35977;SDS011;22056;0.000;0.000;2023-08-01T10:48:10;5.57;;;1.50;;
35977;SDS011;22056;0.000;0.000;2023-08-01T10:50:36;3.78;;;1.20;;
35977;SDS011;22056;0.000;0.000;2023-08-01T10:53:03;7.45;;;1.27;;
35977;SDS011;22056;0.000;0.000;2023-08-01T10:55:38;2.35;;;1.02;;
35977;SDS011;22056;0.000;0.000;2023-08-01T10:58:04;4.82;;;1.30;;
35977;SDS011;22056;0.000;0.000;2023-08-01T11:00:31;1.88;;;0.90;;
35977;SDS011;22056;0.000;0.000;2023-08-01T11:02:57;2.85;;;1.23;;
35977;SDS011;22056;0.000;0.000;2023-08-01T11:05:23;4.78;;;1.30;;
35977;SDS011;22056;0.000;0.000;2023-08-01T11:07:54;3.20;;;1.13;;
35977;SDS011;22056;0.000;0.000;2023-08-01T11:10:21;7.55;;;1.30;;
35977;SDS011;22056;0.000;0.000;2023-08-01T11:12:47;4.20;;;1.25;;
35977;SDS011;22056;0.000;0.000;2023-08-01T11:15:14;2.83;;;1.55;;
35977;SDS011;22056;0.000;0.000;2023-08-01T11:17:46;2.15;;;1.10;;
35977;SDS011;22056;0.000;0.000;2023-08-01T11:20:13;3.58;;;1.27;;
35977;SDS011;22056;0.000;0.000;2023-08-01T11:22:50;3.67;;;1.23;;
35977;SDS011;22056;0.000;0.000;2023-08-01T11:25:16;4.90;;;1.30;;
35977;SDS011;22056;0.000;0.000;2023-08-01T11:27:42;3.42;;;1.00;;
35977;SDS011;22056;0.000;0.000;2023-08-01T11:30:08;2.40;;;1.23;;
35977;SDS011;22056;0.000;0.000;2023-08-01T11:32:36;2.28;;;1.23;;
35977;SDS011;22056;0.000;0.000;2023-08-01T11:35:03;2.20;;;0.85;;
35977;SDS011;22056;0.000;0.000;2023-08-01T11:37:29;2.42;;;1.20;;
35977;SDS011;22056;0.000;0.000;2023-08-01T11:39:56;3.25;;;1.05;;
35977;SDS011;22056;0.000;0.000;2023-08-01T11:42:23;3.28;;;1.33;;
35977;SDS011;22056;0.000;0.000;2023-08-01T11:44:49;5.82;;;1.30;;
35977;SDS011;22056;0.000;0.000;2023-08-01T11:47:16;3.17;;;1.27;;
35977;SDS011;22056;0.000;0.000;2023-08-01T11:49:49;3.38;;;1.15;;
35977;SDS011;22056;0.000;0.000;2023-08-01T11:52:25;2.83;;;1.40;;
35977;SDS011;22056;0.000;0.000;2023-08-01T11:54:51;5.82;;;1.15;;
35977;SDS011;22056;0.000;0.000;2023-08-01T11:57:19;4.15;;;1.00;;
35977;SDS011;22056;0.000;0.000;2023-08-01T11:59:47;4.03;;;1.02;;
35977;SDS011;22056;0.000;0.000;2023-08-01T12:02:26;3.15;;;1.27;;
35977;SDS011;22056;0.000;0.000;2023-08-01T12:04:53;3.40;;;0.90;;
35977;SDS011;22056;0.000;0.000;2023-08-01T12:07:20;6.20;;;1.20;;
35977;SDS011;22056;0.000;0.000;2023-08-01T12:09:58;4.82;;;1.63;;
35977;SDS011;22056;0.000;0.000;2023-08-01T12:12:28;5.45;;;1.20;;
35977;SDS011;22056;0.000;0.000;2023-08-01T12:14:54;3.03;;;1.15;;
35977;SDS011;22056;0.000;0.000;2023-08-01T12:17:22;2.58;;;1.20;;
35977;SDS011;22056;0.000;0.000;2023-08-01T12:19:48;3.20;;;1.00;;
35977;SDS011;22056;0.000;0.000;2023-08-01T12:22:14;2.47;;;1.00;;
35977;SDS011;22056;0.000;0.000;2023-08-01T12:24:41;1.58;;;1.05;;
35977;SDS011;22056;0.000;0.000;2023-08-01T12:27:07;2.38;;;0.90;;
35977;SDS011;22056;0.000;0.000;2023-08-01T12:29:34;2.47;;;1.23;;
35977;SDS011;22056;0.000;0.000;2023-08-01T12:32:01;5.40;;;1.17;;
35977;SDS011;22056;0.000;0.000;2023-08-01T12:34:27;5.60;;;1.08;;
35977;SDS011;22056;0.000;0.000;2023-08-01T12:36:53;3.17;;;0.93;;
35977;SDS011;22056;0.000;0.000;2023-08-01T12:39:19;2.90;;;0.98;;
35977;SDS011;22056;0.000;0.000;2023-08-01T12:41:46;3.17;;;0.90;;
35977;SDS011;22056;0.000;0.000;2023-08-01T12:44:12;2.30;;;0.80;;
35977;SDS011;22056;0.000;0.000;2023-08-01T12:46:41;6.13;;;1.98;;
35977;SDS011;22056;0.000;0.000;2023-08-01T12:49:07;4.30;;;1.08;;
35977;SDS011;22056;0.000;0.000;2023-08-01T12:51:33;3.95;;;1.42;;
35977;SDS011;22056;0.000;0.000;2023-08-01T12:53:59;2.38;;;1.20;;
35977;SDS011;22056;0.000;0.000;2023-08-01T12:56:25;3.38;;;1.10;;
35977;SDS011;22056;0.000;0.000;2023-08-01T12:58:51;6.78;;;1.20;;
35977;SDS011;22056;0.000;0.000;2023-08-01T13:01:17;3.40;;;0.90;;
35977;SDS011;22056;0.000;0.000;2023-08-01T13:03:44;4.13;;;0.98;;
35977;SDS011;22056;0.000;0.000;2023-08-01T13:06:10;4.57;;;1.30;;
35977;SDS011;22056;0.000;0.000;2023-08-01T13:08:38;5.03;;;1.55;;
35977;SDS011;22056;0.000;0.000;2023-08-01T13:11:10;5.22;;;1.02;;
35977;SDS011;22056;0.000;0.000;2023-08-01T13:13:37;3.50;;;1.15;;
35977;SDS011;22056;0.000;0.000;2023-08-01T13:16:04;3.10;;;1.10;;
35977;SDS011;22056;0.000;0.000;2023-08-01T13:18:30;2.22;;;0.90;;
35977;SDS011;22056;0.000;0.000;2023-08-01T13:20:56;3.15;;;1.00;;
35977;SDS011;22056;0.000;0.000;2023-08-01T13:23:24;2.53;;;1.20;;
35977;SDS011;22056;0.000;0.000;2023-08-01T13:25:51;2.92;;;1.10;;
35977;SDS011;22056;0.000;0.000;2023-08-01T13:28:17;4.38;;;1.30;;
35977;SDS011;22056;0.000;0.000;2023-08-01T13:30:43;2.75;;;1.27;;
35977;SDS011;22056;0.000;0.000;2023-08-01T13:33:09;5.72;;;1.17;;
35977;SDS011;22056;0.000;0.000;2023-08-01T13:35:35;2.35;;;1.00;;
35977;SDS011;22056;0.000;0.000;2023-08-01T13:38:01;2.17;;;1.30;;
35977;SDS011;22056;0.000;0.000;2023-08-01T13:40:29;3.05;;;1.40;;
35977;SDS011;22056;0.000;0.000;2023-08-01T13:42:56;2.92;;;0.90;;
35977;SDS011;22056;0.000;0.000;2023-08-01T13:45:22;4.40;;;1.17;;
35977;SDS011;22056;0.000;0.000;2023-08-01T13:47:48;3.25;;;1.20;;
35977;SDS011;22056;0.000;0.000;2023-08-01T13:50:14;2.70;;;0.90;;
35977;SDS011;22056;0.000;0.000;2023-08-01T13:52:41;2.45;;;1.00;;
35977;SDS011;22056;0.000;0.000;2023-08-01T13:55:07;2.28;;;0.90;;
35977;SDS011;22056;0.000;0.000;2023-08-01T13:57:34;5.95;;;1.00;;
35977;SDS011;22056;0.000;0.000;2023-08-01T14:00:01;3.67;;;1.00;;
35977;SDS011;22056;0.000;0.000;2023-08-01T14:02:27;4.68;;;1.27;;
35977;SDS011;22056;0.000;0.000;2023-08-01T14:04:54;3.47;;;0.95;;
35977;SDS011;22056;0.000;0.000;2023-08-01T14:07:20;3.50;;;1.00;;
35977;SDS011;22056;0.000;0.000;2023-08-01T14:09:46;3.90;;;1.15;;
35977;SDS011;22056;0.000;0.000;2023-08-01T14:12:12;2.83;;;1.00;;
35977;SDS011;22056;0.000;0.000;2023-08-01T14:14:41;4.60;;;1.30;;
35977;SDS011;22056;0.000;0.000;2023-08-01T14:17:07;2.55;;;1.23;;
35977;SDS011;22056;0.000;0.000;2023-08-01T14:19:33;2.40;;;1.17;;
35977;SDS011;22056;0.000;0.000;2023-08-01T14:21:59;3.70;;;1.08;;
35977;SDS011;22056;0.000;0.000;2023-08-01T14:24:26;7.35;;;1.17;;
35977;SDS011;22056;0.000;0.000;2023-08-01T14:26:52;5.50;;;1.10;;
35977;SDS011;22056;0.000;0.000;2023-08-01T14:29:18;5.07;;;1.38;;
35977;SDS011;22056;0.000;0.000;2023-08-01T14:31:47;4.93;;;1.40;;
35977;SDS011;22056;0.000;0.000;2023-08-01T14:34:14;1.95;;;1.00;;
35977;SDS011;22056;0.000;0.000;2023-08-01T14:36:41;4.68;;;1.20;;
35977;SDS011;22056;0.000;0.000;2023-08-01T14:39:07;5.53;;;1.20;;
35977;SDS011;22056;0.000;0.000;2023-08-01T14:41:33;5.63;;;1.33;;
35977;SDS011;22056;0.000;0.000;2023-08-01T14:43:59;4.10;;;1.20;;
35977;SDS011;22056;0.000;0.000;2023-08-01T14:46:26;3.00;;;1.27;;
35977;SDS011;22056;0.000;0.000;2023-08-01T14:48:52;4.88;;;1.30;;
35977;SDS011;22056;0.000;0.000;2023-08-01T14:51:18;4.13;;;1.00;;
35977;SDS011;22056;0.000;0.000;2023-08-01T14:53:44;7.57;;;1.33;;
35977;SDS011;22056;0.000;0.000;2023-08-01T14:56:10;3.00;;;1.20;;
35977;SDS011;22056;0.000;0.000;2023-08-01T14:58:36;4.22;;;1.00;;